createdAt,value
2023-03-26T00:02:36.000Z,43.75
2023-03-26T00:07:35.000Z,41.54
2023-03-26T00:12:36.000Z,39.67
2023-03-26T00:17:36.000Z,41.44
2023-03-26T00:22:35.000Z,42.7
2023-03-26T00:27:36.000Z,42.7
2023-03-26T00:32:35.000Z,45.53
2023-03-26T00:37:36.000Z,48.1
2023-03-26T00:42:35.000Z,47.59
2023-03-26T00:47:35.000Z,46.19
2023-03-26T00:52:36.000Z,48.94
2023-03-26T00:57:46.000Z,50.6
2023-03-26T01:02:35.000Z,46.71
2023-03-26T01:07:36.000Z,43.84
2023-03-26T01:12:35.000Z,44.92
2023-03-26T01:17:35.000Z,50.6
2023-03-26T01:22:36.000Z,65.12
2023-03-26T01:27:36.000Z,72.03
2023-03-26T01:32:36.000Z,69.28
2023-03-26T01:37:36.000Z,52.15
2023-03-26T01:42:35.000Z,52.15
2023-03-26T01:47:35.000Z,47.81
2023-03-26T01:52:36.000Z,44.15
2023-03-26T01:57:35.000Z,44.36
2023-03-26T02:02:36.000Z,40.12
2023-03-26T02:07:36.000Z,39.01
2023-03-26T02:12:35.000Z,37.4
2023-03-26T02:17:36.000Z,38.08
2023-03-26T02:22:35.000Z,39.59
2023-03-26T02:27:35.000Z,64.12
2023-03-26T02:32:38.000Z,50.31
2023-03-26T02:37:35.000Z,44.62
2023-03-26T02:42:36.000Z,41.92
2023-03-26T02:47:35.000Z,41.92
2023-03-26T02:52:36.000Z,38.56
2023-03-26T02:57:35.000Z,38.27
2023-03-26T03:02:36.000Z,73.3
2023-03-26T03:07:35.000Z,43.54
2023-03-26T03:12:35.000Z,36.27
2023-03-26T03:17:35.000Z,35.97
2023-03-26T03:22:36.000Z,36.88
2023-03-26T03:27:36.000Z,37.76
2023-03-26T03:32:36.000Z,38.41
2023-03-26T03:37:35.000Z,38.12
2023-03-26T03:42:35.000Z,39.18
2023-03-26T03:47:35.000Z,38.86
2023-03-26T03:52:36.000Z,37.24
2023-03-26T03:57:35.000Z,37.24
2023-03-26T04:02:36.000Z,37.1
2023-03-26T04:07:35.000Z,37.87
2023-03-26T04:12:35.000Z,39.26
2023-03-26T04:17:36.000Z,38.7
2023-03-26T04:22:36.000Z,43.1
2023-03-26T04:27:36.000Z,50.25
2023-03-26T04:32:36.000Z,45.81
2023-03-26T04:37:36.000Z,45.35
2023-03-26T04:42:36.000Z,44.52
2023-03-26T04:47:36.000Z,47
2023-03-26T04:52:35.000Z,47.45
2023-03-26T04:57:35.000Z,49.24
2023-03-26T05:02:35.000Z,48.06
2023-03-26T05:07:36.000Z,48.06
2023-03-26T05:12:35.000Z,48.96
2023-03-26T05:17:36.000Z,49.45
2023-03-26T05:22:35.000Z,62.44
2023-03-26T05:27:35.000Z,48.21
2023-03-26T05:32:36.000Z,45.05
2023-03-26T05:37:35.000Z,42.86
2023-03-26T05:42:36.000Z,43.54
2023-03-26T05:47:35.000Z,41.98
2023-03-26T05:52:36.000Z,42.03
2023-03-26T05:57:35.000Z,43.33
2023-03-26T06:02:35.000Z,45.13
2023-03-26T06:07:35.000Z,45.41
2023-03-26T06:12:35.000Z,42.76
2023-03-26T06:17:35.000Z,42.76
2023-03-26T06:22:36.000Z,41.11
2023-03-26T06:27:35.000Z,39.54
2023-03-26T06:32:35.000Z,35.8
2023-03-26T06:37:36.000Z,38.61
2023-03-26T06:43:19.000Z,38.8
2023-03-26T06:47:35.000Z,35.41
2023-03-26T06:52:35.000Z,33.1
2023-03-26T06:57:36.000Z,31.55
2023-03-26T07:02:35.000Z,30.94
2023-03-26T07:07:35.000Z,32.06
2023-03-26T07:12:36.000Z,31.63
2023-03-26T07:17:36.000Z,26.8
2023-03-26T07:22:36.000Z,25.32
2023-03-26T07:27:36.000Z,25.32
2023-03-26T07:32:35.000Z,22.47
2023-03-26T07:37:35.000Z,23.77
2023-03-26T07:42:35.000Z,20.73
2023-03-26T07:47:36.000Z,22.21
2023-03-26T07:52:35.000Z,21.04
2023-03-26T07:57:36.000Z,20.01
2023-03-26T08:02:36.000Z,18.92
2023-03-26T08:07:37.000Z,17.77
2023-03-26T08:12:36.000Z,14.77
2023-03-26T08:17:35.000Z,12.62
2023-03-26T08:22:35.000Z,13.57
2023-03-26T08:27:36.000Z,13.89
2023-03-26T08:32:35.000Z,13.89
2023-03-26T08:37:36.000Z,12.87
2023-03-26T08:42:35.000Z,11.91
2023-03-26T08:47:36.000Z,12.49
2023-03-26T08:52:36.000Z,10.21
2023-03-26T08:57:36.000Z,11.65
2023-03-26T09:02:36.000Z,16.57
2023-03-26T09:07:36.000Z,18.73
2023-03-26T09:12:36.000Z,23.12
2023-03-26T09:17:36.000Z,29.51
2023-03-26T09:22:35.000Z,19.24
2023-03-26T09:27:36.000Z,15.32
2023-03-26T09:32:36.000Z,14.13
2023-03-26T09:37:36.000Z,14.56
2023-03-26T09:42:36.000Z,14.47
2023-03-26T09:47:36.000Z,14.47
2023-03-26T09:52:35.000Z,14.71
2023-03-26T09:57:36.000Z,15.1
2023-03-26T10:02:57.000Z,13.64
2023-03-26T10:07:36.000Z,12.66
2023-03-26T10:12:35.000Z,12.16
2023-03-26T10:17:36.000Z,12.41
2023-03-26T10:22:38.000Z,11.84
2023-03-26T10:27:35.000Z,14.55
2023-03-26T10:32:36.000Z,15.79
2023-03-26T10:37:36.000Z,16.33
2023-03-26T10:42:35.000Z,19.06
2023-03-26T10:47:36.000Z,22.99
2023-03-26T10:52:36.000Z,24.24
2023-03-26T10:57:35.000Z,24.24
2023-03-26T11:02:40.000Z,27.65
2023-03-26T11:07:36.000Z,31.51
2023-03-26T11:12:38.000Z,33.65
2023-03-26T11:17:51.000Z,37.47
2023-03-26T11:22:35.000Z,39.88
2023-03-26T11:27:36.000Z,41.19
2023-03-26T11:32:36.000Z,42.54
2023-03-26T11:37:36.000Z,42.28
2023-03-26T11:42:36.000Z,46.22
2023-03-26T11:47:36.000Z,46.79
2023-03-26T11:52:35.000Z,47.07
2023-03-26T11:57:36.000Z,48.45
2023-03-26T12:02:35.000Z,49.54
2023-03-26T12:07:35.000Z,50.91
2023-03-26T12:12:36.000Z,50.91
2023-03-26T12:17:41.000Z,51.46
2023-03-26T12:22:35.000Z,51.8
2023-03-26T12:27:35.000Z,52.06
2023-03-26T12:32:49.000Z,53.54
2023-03-26T12:37:35.000Z,52.33
2023-03-26T12:45:02.000Z,51.27
2023-03-26T12:52:35.000Z,51.38
2023-03-26T12:57:35.000Z,50.17
2023-03-26T13:02:35.000Z,49.9
2023-03-26T13:07:36.000Z,49.19
2023-03-26T13:12:36.000Z,49.13
2023-03-26T13:17:35.000Z,49.13
2023-03-26T13:22:35.000Z,49.14
2023-03-26T13:27:36.000Z,49.45
2023-03-26T13:32:35.000Z,48.5
2023-03-26T13:37:36.000Z,48.2
2023-03-26T13:42:36.000Z,46.67
2023-03-26T13:47:35.000Z,45.12
2023-03-26T13:52:35.000Z,42.91
2023-03-26T13:57:35.000Z,42.54
2023-03-26T14:02:36.000Z,41.9
2023-03-26T14:07:36.000Z,42.13
2023-03-26T14:12:36.000Z,42.38
2023-03-26T14:17:35.000Z,42.75
2023-03-26T14:22:36.000Z,41.37
2023-03-26T14:27:35.000Z,38.33
2023-03-26T14:32:36.000Z,38.33
2023-03-26T14:37:38.000Z,37.62
2023-03-26T14:42:36.000Z,36.52
2023-03-26T14:47:36.000Z,37.64
2023-03-26T14:52:36.000Z,37.46
2023-03-26T14:57:36.000Z,37.38
2023-03-26T15:02:36.000Z,35.57
2023-03-26T15:07:36.000Z,36.11
2023-03-26T15:12:36.000Z,35.77
2023-03-26T15:17:36.000Z,42.17
2023-03-26T15:22:36.000Z,42.17
2023-03-26T15:27:35.000Z,40.86
2023-03-26T15:32:35.000Z,39.43
2023-03-26T15:37:35.000Z,34.59
2023-03-26T15:42:36.000Z,32.4
2023-03-26T15:47:35.000Z,32.64
2023-03-26T15:52:35.000Z,34.09
2023-03-26T15:57:36.000Z,34.63
2023-03-26T16:02:36.000Z,35.2
2023-03-26T16:07:36.000Z,34.1
2023-03-26T16:12:36.000Z,32.24
2023-03-26T16:17:35.000Z,32.48
2023-03-26T16:22:35.000Z,34.01
2023-03-26T16:27:36.000Z,34.01
2023-03-26T16:32:36.000Z,30.55
2023-03-26T16:37:35.000Z,32.08
2023-03-26T16:42:36.000Z,30.94
2023-03-26T16:47:36.000Z,31.61
2023-03-26T16:52:35.000Z,31.18
2023-03-26T16:57:36.000Z,31.03
2023-03-26T17:02:35.000Z,30.31
2023-03-26T17:07:35.000Z,30.31
2023-03-26T17:12:36.000Z,31.45
2023-03-26T17:17:35.000Z,30.82
2023-03-26T17:22:36.000Z,32.09
2023-03-26T17:27:36.000Z,34.43
2023-03-26T17:32:35.000Z,30.74
2023-03-26T17:37:35.000Z,28.43
2023-03-26T17:42:35.000Z,28.01
2023-03-26T17:47:36.000Z,28.76
2023-03-26T17:52:36.000Z,28.42
2023-03-26T17:57:35.000Z,29.21
2023-03-26T18:02:35.000Z,28.2
2023-03-26T18:07:35.000Z,27.67
2023-03-26T18:13:09.000Z,27.41
2023-03-26T18:17:35.000Z,27.41
2023-03-26T18:22:35.000Z,27.91
2023-03-26T18:27:36.000Z,27.75
2023-03-26T18:32:35.000Z,27.71
2023-03-26T18:37:35.000Z,26.67
2023-03-26T18:42:36.000Z,27.13
2023-03-26T18:47:37.000Z,33.84
2023-03-26T18:52:36.000Z,27.73
2023-03-26T18:57:36.000Z,26.79
2023-03-26T19:02:35.000Z,25.18
2023-03-26T19:07:35.000Z,24.15
2023-03-26T19:12:36.000Z,23.79
2023-03-26T19:17:35.000Z,24.1
2023-03-26T19:22:35.000Z,24.1
2023-03-26T19:27:36.000Z,23.63
2023-03-26T19:32:35.000Z,22.71
2023-03-26T19:37:35.000Z,24.72
2023-03-26T19:42:36.000Z,22.5
2023-03-26T19:47:56.000Z,23.45
2023-03-26T19:52:35.000Z,22.51
2023-03-26T19:57:36.000Z,21.99
2023-03-26T20:02:36.000Z,22.16
2023-03-26T20:07:46.000Z,21.03
2023-03-26T20:12:36.000Z,21.44
2023-03-26T20:17:35.000Z,20.94
2023-03-26T20:22:36.000Z,21.97
2023-03-26T20:27:35.000Z,21
2023-03-26T20:32:37.000Z,21
2023-03-26T20:37:35.000Z,21.03
2023-03-26T20:42:36.000Z,19.77
2023-03-26T20:47:36.000Z,22.14
2023-03-26T20:52:35.000Z,22.92
2023-03-26T20:57:35.000Z,22.71
2023-03-26T21:02:36.000Z,23.3
2023-03-26T21:07:35.000Z,24.17
2023-03-26T21:12:35.000Z,24.09
2023-03-26T21:17:36.000Z,24.69
2023-03-26T21:22:35.000Z,24.44
2023-03-26T21:27:35.000Z,27.18
2023-03-26T21:32:35.000Z,29.75
2023-03-26T21:37:36.000Z,31.1
2023-03-26T21:42:35.000Z,31.1
2023-03-26T21:47:35.000Z,36.11
2023-03-26T21:52:35.000Z,36.8
2023-03-26T21:57:36.000Z,41.37
2023-03-26T22:02:36.000Z,33.12
2023-03-26T22:07:36.000Z,27.49
2023-03-26T22:12:35.000Z,22.88
2023-03-26T22:17:36.000Z,24.62
2023-03-26T22:22:36.000Z,24.01
2023-03-26T22:27:35.000Z,25.03
2023-03-26T22:32:42.000Z,23.55
2023-03-26T22:37:35.000Z,24.23
2023-03-26T22:42:36.000Z,26.05
2023-03-26T22:47:35.000Z,26.6
2023-03-26T22:52:36.000Z,26.75
2023-03-26T22:57:35.000Z,26.75
2023-03-26T23:02:36.000Z,29.79
2023-03-26T23:07:36.000Z,28.3
2023-03-26T23:12:36.000Z,26.97
2023-03-26T23:17:36.000Z,25.52
2023-03-26T23:22:36.000Z,25
2023-03-26T23:27:35.000Z,21.92
2023-03-26T23:32:35.000Z,22.08
2023-03-26T23:37:35.000Z,19.39
2023-03-26T23:42:39.000Z,13.56
2023-03-26T23:47:36.000Z,12.01
2023-03-26T23:52:36.000Z,14.2
2023-03-26T23:57:36.000Z,12.24
